Burr Oak, Kansas
Current Conditions -  °F | °C
As of 7:55 AM on Sunday 25 Jan 2015 (Local Time) from KCNK Reporting Station
Overcast Overcast  
Wind Chill: 34°   Ceiling: 2900
Heat Index: 42°   Visibility: 10mi
Dew Point: 34°   Wind: 17mph
Humidity: 73%   Direction: 330°NNW
Pressure: 29.89"   Gusts: 31mph
Location:  39.87°N, 98.31°W
Report Text: KCNK 251355Z AUTO 33015G27KT 10SM BKN029 OVC034 06/01 A2989 RMK AO2 PK WND 34031/1305 SLP126 T00560011
Loading
Personal Weather Stations






























Interactive Weather Map New forecast layout! Learn more

10-Day Weather Forecast

Advertisements
Track Severe Weather on mobile